Time;durP1;ratioP1;P1;durP2;ratioP2;P2;SDS_P1;SDS_P2;PMS_P1;PMS_P2;Temp;Humidity;BMP_temperature;BMP_pressure;BME280_temperature;BME280_humidity;BME280_pressure;Samples;Min_cycle;Max_cycle;Signal;HPM_P1;HPM_P2
2023/09/17 00:07:17;;;;;;;11.85;10.45;;;18.40;1.00;;;;;;20662985;28;20097;-42
2023/09/17 00:17:18;;;;;;;11.68;10.48;;;18.30;1.00;;;;;;20663377;28;20048;-43
2023/09/17 00:27:18;;;;;;;13.57;11.85;;;18.20;1.00;;;;;;20671572;28;20125;-43
2023/09/17 00:37:19;;;;;;;13.68;12.27;;;18.30;1.00;;;;;;20675873;28;20046;-42
2023/09/17 00:47:21;;;;;;;12.32;10.13;;;18.30;1.00;;;;;;20672591;28;20041;-42
2023/09/17 00:57:22;;;;;;;12.73;11.40;;;18.20;1.00;;;;;;20673631;28;20120;-43
2023/09/17 01:07:23;;;;;;;12.40;11.10;;;18.20;1.00;;;;;;20674302;28;20133;-43
2023/09/17 01:17:27;;;;;;;11.82;10.13;;;18.20;1.00;;;;;;20672456;28;20060;-42
2023/09/17 01:27:28;;;;;;;12.18;10.93;;;18.20;1.00;;;;;;20672710;28;20129;-42
2023/09/17 01:37:39;;;;;;;10.68;9.57;;;18.20;1.00;;;;;;20669952;28;20104;-42
2023/09/17 01:47:44;;;;;;;12.50;11.20;;;18.20;1.00;;;;;;20670275;28;20030;-42
2023/09/17 01:57:45;;;;;;;13.13;11.73;;;18.20;1.00;;;;;;20668582;28;20052;-42
2023/09/17 02:07:46;;;;;;;13.10;11.70;;;18.10;1.00;;;;;;20668491;28;20038;-42
2023/09/17 02:17:50;;;;;;;14.00;12.35;;;18.10;1.00;;;;;;20663536;28;20099;-42
2023/09/17 02:27:51;;;;;;;15.82;14.13;;;18.00;1.00;;;;;;20667558;28;20041;-42
2023/09/17 02:37:54;;;;;;;15.77;14.18;;;17.90;1.00;;;;;;21079993;23;20045;-42
2023/09/17 02:47:55;;;;;;;17.15;15.35;;;17.70;1.00;;;;;;20595041;28;20035;-42
2023/09/17 02:57:55;;;;;;;14.23;12.57;;;17.60;1.00;;;;;;20583502;28;20058;-42
2023/09/17 03:07:56;;;;;;;20.58;16.15;;;17.50;1.00;;;;;;20585823;28;20059;-42
2023/09/17 03:17:57;;;;;;;17.25;14.43;;;17.30;1.00;;;;;;20582518;28;20031;-42
2023/09/17 03:27:59;;;;;;;16.27;14.35;;;17.30;1.00;;;;;;20584313;28;20038;-42
2023/09/17 03:38:00;;;;;;;17.77;14.65;;;17.30;1.00;;;;;;20585053;28;20090;-42
2023/09/17 03:48:01;;;;;;;16.25;14.65;;;17.30;1.00;;;;;;20582605;28;20035;-42
2023/09/17 03:58:03;;;;;;;17.70;15.80;;;17.30;1.00;;;;;;20585625;28;20644;-42
2023/09/17 04:08:05;;;;;;;17.55;15.75;;;17.20;1.00;;;;;;20597667;28;20058;-42
2023/09/17 04:18:06;;;;;;;19.88;17.77;;;17.00;1.00;;;;;;20596698;28;20418;-42
2023/09/17 04:28:07;;;;;;;25.60;21.63;;;16.80;1.00;;;;;;20595509;28;20057;-41
2023/09/17 04:38:07;;;;;;;20.05;17.92;;;16.90;1.00;;;;;;20597500;28;20454;-41
2023/09/17 04:48:09;;;;;;;19.70;17.60;;;16.90;1.00;;;;;;20573018;28;20047;-42
2023/09/17 04:58:09;;;;;;;20.55;17.48;;;16.70;1.20;;;;;;20546517;28;21095;-42
2023/09/17 05:08:10;;;;;;;22.38;16.55;;;16.60;1.00;;;;;;20547810;28;21302;-42
2023/09/17 05:18:11;;;;;;;19.15;15.20;;;16.60;1.00;;;;;;20567793;28;20202;-42
2023/09/17 05:28:11;;;;;;;17.85;14.23;;;16.50;1.00;;;;;;20562510;28;20089;-42
2023/09/17 05:38:12;;;;;;;14.95;13.38;;;16.60;1.00;;;;;;20556942;28;20745;-42
2023/09/17 05:48:12;;;;;;;16.25;13.73;;;16.60;1.00;;;;;;20549601;28;20051;-42
2023/09/17 05:58:13;;;;;;;23.48;17.10;;;16.50;1.00;;;;;;20542779;28;20070;-43
2023/09/17 06:08:13;;;;;;;22.80;19.27;;;16.20;1.00;;;;;;20546787;28;20039;-44
2023/09/17 06:18:16;;;;;;;32.55;25.27;;;15.70;42.40;;;;;;20542544;28;20062;-43
2023/09/17 06:28:17;;;;;;;31.80;25.95;;;15.50;99.90;;;;;;20528491;28;20038;-43
2023/09/17 06:38:17;;;;;;;37.83;28.70;;;15.30;99.90;;;;;;20552053;28;20050;-44
2023/09/17 06:48:18;;;;;;;43.00;32.65;;;15.20;99.90;;;;;;20535413;28;20870;-44
2023/09/17 06:58:18;;;;;;;44.25;31.55;;;15.10;99.90;;;;;;20569044;28;20123;-44
2023/09/17 07:08:19;;;;;;;45.33;33.00;;;15.10;99.90;;;;;;20566113;28;20429;-45
2023/09/17 07:18:20;;;;;;;47.92;33.67;;;15.20;99.90;;;;;;20558317;28;20074;-44
2023/09/17 07:28:21;;;;;;;48.38;33.90;;;15.20;99.90;;;;;;20557951;28;20047;-43
2023/09/17 07:38:21;;;;;;;52.50;33.97;;;15.20;99.90;;;;;;20540103;28;20085;-44
2023/09/17 07:48:24;;;;;;;47.50;33.03;;;15.30;99.90;;;;;;20542144;28;20928;-44
2023/09/17 07:58:24;;;;;;;47.40;31.27;;;15.30;99.90;;;;;;20549547;28;20145;-44
2023/09/17 08:08:26;;;;;;;50.80;33.15;;;15.30;99.90;;;;;;20557111;28;20421;-45
2023/09/17 08:18:27;;;;;;;48.60;31.67;;;15.40;99.90;;;;;;20550140;28;20563;-44
2023/09/17 08:28:27;;;;;;;51.78;30.70;;;15.50;99.90;;;;;;20550477;28;20039;-43
2023/09/17 08:38:29;;;;;;;42.72;30.15;;;15.60;99.90;;;;;;20515914;28;20051;-43
2023/09/17 08:48:30;;;;;;;37.03;25.60;;;15.70;99.90;;;;;;20560918;28;20137;-44
2023/09/17 08:58:38;;;;;;;31.13;21.67;;;15.60;99.90;;;;;;20558446;28;20042;-44
2023/09/17 09:08:42;;;;;;;31.23;21.05;;;15.60;99.90;;;;;;20579083;28;20066;-44
2023/09/17 09:18:43;;;;;;;34.67;23.23;;;15.60;99.90;;;;;;20586282;28;20038;-44
2023/09/17 09:28:44;;;;;;;32.38;22.85;;;15.60;99.90;;;;;;20584983;28;20047;-44
2023/09/17 09:38:45;;;;;;;33.65;22.77;;;15.70;99.90;;;;;;20586674;28;20053;-44
2023/09/17 09:48:47;;;;;;;36.65;23.88;;;15.90;99.90;;;;;;20574316;28;20053;-44
2023/09/17 09:58:49;;;;;;;35.20;24.50;;;16.00;99.90;;;;;;20582651;28;20420;-44
2023/09/17 10:08:52;;;;;;;35.17;24.40;;;16.00;99.90;;;;;;20519870;28;20039;-44
2023/09/17 10:18:53;;;;;;;39.63;25.70;;;16.00;99.90;;;;;;20552303;28;20046;-43
2023/09/17 10:28:54;;;;;;;39.67;26.27;;;16.10;99.90;;;;;;20537399;28;20041;-43
2023/09/17 10:38:57;;;;;;;39.13;27.58;;;16.10;99.90;;;;;;20546049;28;20059;-43
2023/09/17 10:48:59;;;;;;;43.40;30.15;;;16.20;99.90;;;;;;20549979;28;20045;-43
2023/09/17 10:59:00;;;;;;;40.72;29.33;;;16.40;99.90;;;;;;20557169;28;20046;-44
2023/09/17 11:09:01;;;;;;;43.50;29.70;;;16.50;99.90;;;;;;20541514;28;20058;-44
2023/09/17 11:19:14;;;;;;;42.85;27.50;;;16.50;99.90;;;;;;20551982;28;20050;-44
2023/09/17 11:29:14;;;;;;;37.90;26.67;;;16.50;99.90;;;;;;20533974;28;20573;-44
2023/09/17 11:39:16;;;;;;;50.85;31.17;;;16.50;99.90;;;;;;20556847;28;20383;-43
2023/09/17 11:49:18;;;;;;;55.55;31.50;;;16.60;99.90;;;;;;20550233;28;20042;-44
2023/09/17 11:59:19;;;;;;;57.20;34.80;;;16.60;99.90;;;;;;20542468;28;20524;-44
2023/09/17 12:09:33;;;;;;;73.35;38.28;;;16.80;99.90;;;;;;20546259;28;20124;-44
2023/09/17 12:19:34;;;;;;;77.75;42.00;;;16.90;99.90;;;;;;20552069;28;20128;-44
2023/09/17 12:29:35;;;;;;;63.47;34.40;;;17.00;99.90;;;;;;20563577;28;20525;-43
2023/09/17 12:39:36;;;;;;;70.10;35.88;;;17.00;99.90;;;;;;20559096;28;20077;-44
2023/09/17 12:49:36;;;;;;;68.30;36.30;;;17.10;99.90;;;;;;20572977;28;20035;-44
2023/09/17 12:59:37;;;;;;;62.17;34.40;;;17.30;99.90;;;;;;20556231;28;20050;-44
2023/09/17 13:09:38;;;;;;;78.15;40.17;;;17.40;99.90;;;;;;20553152;28;20035;-44
2023/09/17 13:19:39;;;;;;;75.63;42.07;;;17.50;99.90;;;;;;20553980;28;20035;-43
2023/09/17 13:29:40;;;;;;;69.70;37.97;;;17.70;99.90;;;;;;20552270;28;20038;-44
2023/09/17 13:39:42;;;;;;;64.03;36.47;;;17.80;99.90;;;;;;20564453;28;20058;-44
2023/09/17 13:49:44;;;;;;;71.10;36.95;;;17.80;99.90;;;;;;20564001;28;20035;-44
2023/09/17 13:59:44;;;;;;;59.08;34.13;;;18.00;99.90;;;;;;20568353;28;20133;-43
2023/09/17 14:09:45;;;;;;;58.17;33.72;;;18.10;99.90;;;;;;20545974;28;20925;-44
2023/09/17 14:19:46;;;;;;;49.20;28.03;;;18.00;99.90;;;;;;20543480;28;20046;-44
2023/09/17 14:29:47;;;;;;;51.65;29.80;;;18.10;99.90;;;;;;20543063;28;20882;-45
2023/09/17 14:39:48;;;;;;;43.17;27.20;;;18.20;99.90;;;;;;20536680;28;20129;-44
2023/09/17 14:49:48;;;;;;;48.92;27.90;;;18.20;99.90;;;;;;20530212;28;20672;-44
2023/09/17 14:59:49;;;;;;;40.22;24.38;;;18.20;99.90;;;;;;20531205;28;20099;-44
2023/09/17 15:09:50;;;;;;;52.55;29.83;;;18.20;99.90;;;;;;20526713;28;20046;-45
2023/09/17 15:19:51;;;;;;;52.92;30.95;;;18.20;99.90;;;;;;20525789;28;20046;-45
2023/09/17 15:29:52;;;;;;;44.03;25.85;;;18.20;99.90;;;;;;20529876;28;20035;-44
2023/09/17 15:39:52;;;;;;;42.15;24.75;;;18.30;99.90;;;;;;20519650;28;20434;-44
2023/09/17 15:49:53;;;;;;;40.83;23.63;;;18.40;99.90;;;;;;20539806;28;20049;-44
2023/09/17 15:59:54;;;;;;;38.63;22.75;;;18.50;99.90;;;;;;20557790;28;20034;-44
2023/09/17 16:09:54;;;;;;;38.53;21.40;;;18.60;99.90;;;;;;20548971;28;20043;-44
2023/09/17 16:19:56;;;;;;;34.95;21.08;;;18.60;99.90;;;;;;20539220;28;20062;-45
2023/09/17 16:29:58;;;;;;;47.55;28.13;;;18.70;99.90;;;;;;20536907;28;20417;-43
2023/09/17 16:40:03;;;;;;;43.75;23.67;;;18.70;99.90;;;;;;20543663;28;20402;-44
2023/09/17 16:50:04;;;;;;;48.63;27.42;;;18.70;99.90;;;;;;20542482;28;20242;-44
2023/09/17 17:00:05;;;;;;;44.17;27.52;;;18.70;99.90;;;;;;20546168;28;20119;-44
2023/09/17 17:10:06;;;;;;;37.20;23.75;;;18.70;99.90;;;;;;20545108;28;20038;-44
2023/09/17 17:20:08;;;;;;;36.72;21.77;;;18.60;99.90;;;;;;20542856;28;20046;-45
2023/09/17 17:30:10;;;;;;;38.70;22.15;;;18.50;99.90;;;;;;20548313;28;20537;-44
2023/09/17 17:40:10;;;;;;;24.80;16.55;;;18.30;99.90;;;;;;20543101;28;20057;-44
2023/09/17 17:50:11;;;;;;;22.90;16.35;;;18.20;99.90;;;;;;20524740;28;20138;-44
2023/09/17 18:00:12;;;;;;;29.30;17.63;;;18.00;99.90;;;;;;20537559;28;20038;-44
2023/09/17 18:10:13;;;;;;;36.65;21.77;;;18.00;99.90;;;;;;20532096;28;20122;-45
2023/09/17 18:20:16;;;;;;;31.90;19.50;;;17.80;99.90;;;;;;20529250;28;20130;-44
2023/09/17 18:30:16;;;;;;;47.58;27.90;;;17.70;99.90;;;;;;20537472;28;20347;-44
2023/09/17 18:40:17;;;;;;;46.25;27.23;;;17.70;99.90;;;;;;20530842;28;20665;-44
2023/09/17 18:50:18;;;;;;;44.90;26.20;;;17.60;99.90;;;;;;20540078;28;20050;-44
2023/09/17 19:00:18;;;;;;;50.17;29.15;;;17.50;99.90;;;;;;20522611;28;20764;-44
2023/09/17 19:10:19;;;;;;;42.90;25.20;;;17.40;99.90;;;;;;20546315;28;20073;-44
2023/09/17 19:20:19;;;;;;;51.70;30.35;;;17.30;99.90;;;;;;20523333;28;20047;-43
2023/09/17 19:30:20;;;;;;;52.83;29.00;;;17.30;99.90;;;;;;20545136;28;20162;-44
2023/09/17 19:40:21;;;;;;;58.90;31.85;;;17.30;99.90;;;;;;20568310;28;20438;-44
2023/09/17 19:50:21;;;;;;;56.25;29.27;;;17.30;99.90;;;;;;20584089;28;20035;-44
2023/09/17 20:00:22;;;;;;;45.70;26.25;;;17.40;99.90;;;;;;20593212;28;20054;-43
2023/09/17 20:10:23;;;;;;;57.47;31.13;;;17.40;99.90;;;;;;20569362;28;20422;-45
2023/09/17 20:20:25;;;;;;;41.08;24.65;;;17.50;99.90;;;;;;20561652;28;20152;-44
2023/09/17 20:30:26;;;;;;;46.72;27.90;;;17.50;99.90;;;;;;20548980;28;20038;-44
2023/09/17 20:40:27;;;;;;;47.27;26.83;;;17.50;99.90;;;;;;20538806;28;20056;-44
2023/09/17 20:50:28;;;;;;;39.70;26.27;;;17.50;99.90;;;;;;20539907;28;20080;-44
2023/09/17 21:00:30;;;;;;;58.90;30.77;;;17.40;99.90;;;;;;20540546;28;20053;-44
2023/09/17 21:10:31;;;;;;;51.47;30.38;;;17.40;99.90;;;;;;20543319;28;20069;-45
2023/09/17 21:20:31;;;;;;;45.95;26.98;;;17.40;99.90;;;;;;20534939;28;20564;-44
2023/09/17 21:30:33;;;;;;;51.85;31.13;;;17.40;99.90;;;;;;20548658;28;20042;-44
2023/09/17 21:40:33;;;;;;;54.72;31.48;;;17.50;99.90;;;;;;20537277;28;20039;-43
2023/09/17 21:50:34;;;;;;;43.40;28.42;;;17.50;99.90;;;;;;20548698;28;20046;-44
2023/09/17 22:00:34;;;;;;;52.08;30.52;;;17.60;99.90;;;;;;20533386;28;20125;-45
2023/09/17 22:10:36;;;;;;;50.17;30.27;;;17.60;99.90;;;;;;20538488;28;20043;-43
2023/09/17 22:20:37;;;;;;;47.42;29.92;;;17.70;99.90;;;;;;20535195;28;20093;-45
2023/09/17 22:30:38;;;;;;;45.20;27.97;;;17.70;99.90;;;;;;20538369;28;20086;-44
2023/09/17 22:40:39;;;;;;;38.43;25.90;;;17.80;99.90;;;;;;20535297;28;20047;-44
2023/09/17 22:50:40;;;;;;;30.75;21.10;;;17.80;99.90;;;;;;20532948;28;20053;-44
2023/09/17 23:00:43;;;;;;;33.67;21.60;;;17.80;99.90;;;;;;20530917;28;20050;-44
2023/09/17 23:10:44;;;;;;;28.48;18.83;;;17.80;99.90;;;;;;20536717;28;20042;-43
2023/09/17 23:20:49;;;;;;;29.88;20.35;;;17.70;99.90;;;;;;20533411;28;20046;-44
2023/09/17 23:30:53;;;;;;;36.53;23.83;;;17.70;99.90;;;;;;20537234;28;20384;-44
2023/09/17 23:40:54;;;;;;;29.73;23.27;;;17.80;99.90;;;;;;20526516;28;20458;-44
2023/09/17 23:50:55;;;;;;;36.53;24.25;;;17.90;1.00;;;;;;20532303;28;20682;-44
